Time;durP1;ratioP1;P1;durP2;ratioP2;P2;SDS_P1;SDS_P2;PMS_P1;PMS_P2;Temp;Humidity;BMP_temperature;BMP_pressure;BME280_temperature;BME280_humidity;BME280_pressure;Samples;Min_cycle;Max_cycle;Signal;HPM_P1;HPM_P2
2023/08/28 00:01:41;;;;;;;;;;;;;;;19.51;87.39;94874.47;5134804;27;1040;-55
2023/08/28 00:04:07;;;;;;;;;;;;;;;19.41;88.91;94875.00;5116156;28;1977;-55
2023/08/28 00:06:34;;;;;;;;;;;;;;;19.36;88.02;94874.00;5134385;27;1239;-56
2023/08/28 00:09:00;;;;;;;;;;;;;;;19.26;89.00;94879.94;5134646;27;973;-55
2023/08/28 00:11:26;;;;;;;;;;;;;;;19.18;88.84;94878.34;5133471;27;2666;-55
2023/08/28 00:13:52;;;;;;;;;;;;;;;19.13;89.76;94875.44;5134414;28;1016;-55
2023/08/28 00:16:19;;;;;;;;;;;;;;;19.30;88.78;94871.13;5134369;28;1055;-55
2023/08/28 00:18:45;;;;;;;;;;;;;;;19.53;87.21;94866.94;5134649;28;1027;-55
2023/08/28 00:21:11;;;;;;;;;;;;;;;19.51;87.32;94863.63;5134489;28;1181;-55
2023/08/28 00:23:37;;;;;;;;;;;;;;;19.49;87.83;94876.59;5134422;28;999;-55
2023/08/28 00:26:02;;;;;;;;;;;;;;;19.43;88.06;94878.31;5134363;28;1984;-55
2023/08/28 00:28:28;;;;;;;;;;;;;;;19.27;88.85;94890.56;5134267;28;945;-55
2023/08/28 00:30:54;;;;;;;;;;;;;;;19.13;89.17;94893.59;5134252;28;1047;-55
2023/08/28 00:33:20;;;;;;;;;;;;;;;18.91;89.94;94881.25;5134125;28;1091;-55
2023/08/28 00:35:46;;;;;;;;;;;;;;;18.87;90.33;94885.41;5134152;28;1020;-55
2023/08/28 00:38:12;;;;;;;;;;;;;;;18.84;90.93;94882.34;5134331;28;1027;-55
2023/08/28 00:40:39;;;;;;;;;;;;;;;18.72;91.14;94888.44;5134211;28;1876;-55
2023/08/28 00:43:05;;;;;;;;;;;;;;;18.75;91.44;94887.16;5134133;28;1847;-55
2023/08/28 00:45:31;;;;;;;;;;;;;;;19.04;89.18;94879.47;5133990;28;1909;-55
2023/08/28 00:47:57;;;;;;;;;;;;;;;19.15;88.65;94884.19;5134324;28;955;-55
2023/08/28 00:50:23;;;;;;;;;;;;;;;19.04;88.96;94874.06;5134197;28;969;-55
2023/08/28 00:52:49;;;;;;;;;;;;;;;18.96;90.25;94869.75;5134333;28;965;-56
2023/08/28 00:55:16;;;;;;;;;;;;;;;18.86;89.91;94864.81;5134071;28;956;-56
2023/08/28 00:57:42;;;;;;;;;;;;;;;18.76;90.56;94859.00;5134114;28;1007;-55
2023/08/28 01:00:10;;;;;;;;;;;;;;;18.80;90.67;94862.13;5133909;28;1064;-56
2023/08/28 01:02:38;;;;;;;;;;;;;;;18.76;90.87;94861.72;5133923;28;999;-55
2023/08/28 01:05:05;;;;;;;;;;;;;;;18.73;90.70;94862.19;5133880;28;1913;-55
2023/08/28 01:07:39;;;;;;;;;;;;;;;18.64;91.29;94866.19;5134949;27;1198;-55
2023/08/28 01:10:12;;;;;;;;;;;;;;;18.53;91.78;94865.84;5137780;27;1008;-55
2023/08/28 01:12:43;;;;;;;;;;;;;;;18.48;91.99;94867.53;5137689;27;1012;-55
2023/08/28 01:15:23;;;;;;;;;;;;;;;18.66;91.37;94874.91;5137917;27;968;-56
2023/08/28 01:17:50;;;;;;;;;;;;;;;18.99;88.94;94882.00;5137743;27;1048;-55
2023/08/28 01:20:17;;;;;;;;;;;;;;;18.83;89.45;94876.09;5137774;27;972;-55
2023/08/28 01:23:02;;;;;;;;;;;;;;;18.54;91.32;94875.63;5137720;27;1204;-55
2023/08/28 01:25:29;;;;;;;;;;;;;;;18.41;91.96;94874.88;5137252;27;1913;-56
2023/08/28 01:27:56;;;;;;;;;;;;;;;18.42;91.76;94871.09;5137377;27;1098;-56
2023/08/28 01:30:21;;;;;;;;;;;;;;;18.36;92.20;94869.25;5119040;27;1056;-56
2023/08/28 01:32:47;;;;;;;;;;;;;;;18.52;91.17;94872.28;5137610;27;1034;-55
2023/08/28 01:35:26;;;;;;;;;;;;;;;18.52;91.00;94869.59;5137331;27;1027;-56
2023/08/28 01:37:58;;;;;;;;;;;;;;;18.41;91.25;94869.44;5137448;27;1033;-55
2023/08/28 01:40:26;;;;;;;;;;;;;;;18.37;92.80;94871.75;5137088;27;1882;-55
2023/08/28 01:42:54;;;;;;;;;;;;;;;18.44;91.97;94869.84;5137125;27;1039;-56
2023/08/28 01:45:20;;;;;;;;;;;;;;;18.68;90.46;94865.53;5136924;27;1914;-56
2023/08/28 01:47:46;;;;;;;;;;;;;;;18.52;91.53;94866.06;5137322;27;961;-55
2023/08/28 01:50:12;;;;;;;;;;;;;;;18.38;91.39;94862.56;5136913;27;909;-56
2023/08/28 01:52:38;;;;;;;;;;;;;;;18.26;93.07;94851.63;5136919;27;1034;-56
2023/08/28 01:55:04;;;;;;;;;;;;;;;18.42;92.21;94852.16;5136873;27;1032;-56
2023/08/28 01:57:30;;;;;;;;;;;;;;;18.44;91.48;94850.06;5136939;27;984;-55
2023/08/28 01:59:56;;;;;;;;;;;;;;;18.41;91.98;94858.63;5135901;27;2552;-56
2023/08/28 02:02:23;;;;;;;;;;;;;;;18.41;92.41;94859.44;5136995;27;1207;-56
2023/08/28 02:04:49;;;;;;;;;;;;;;;18.19;92.56;94863.53;5136706;27;1902;-56
2023/08/28 02:07:15;;;;;;;;;;;;;;;17.95;93.77;94863.22;5136883;27;1065;-56
2023/08/28 02:09:40;;;;;;;;;;;;;;;18.08;93.49;94862.31;5136900;27;974;-54
2023/08/28 02:12:06;;;;;;;;;;;;;;;18.04;92.93;94858.38;5136816;27;991;-56
2023/08/28 02:14:32;;;;;;;;;;;;;;;17.93;93.96;94849.06;5136729;27;1037;-56
2023/08/28 02:16:58;;;;;;;;;;;;;;;17.93;93.69;94851.78;5136451;27;1036;-56
2023/08/28 02:19:24;;;;;;;;;;;;;;;18.12;92.45;94848.16;5136409;27;1003;-55
2023/08/28 02:21:50;;;;;;;;;;;;;;;18.18;92.46;94853.75;5136332;27;1153;-55
2023/08/28 02:24:16;;;;;;;;;;;;;;;17.98;92.86;94849.25;5136160;27;1985;-55
2023/08/28 02:26:42;;;;;;;;;;;;;;;17.82;94.45;94857.81;5136240;27;1035;-55
2023/08/28 02:29:08;;;;;;;;;;;;;;;17.80;93.84;94851.81;5136537;27;1044;-56
2023/08/28 02:31:34;;;;;;;;;;;;;;;17.80;94.51;94843.69;5136227;27;1030;-56
2023/08/28 02:34:00;;;;;;;;;;;;;;;17.93;93.55;94847.19;5136112;27;1110;-56
2023/08/28 02:36:26;;;;;;;;;;;;;;;18.12;92.68;94845.44;5140953;27;2878;-55
2023/08/28 02:38:52;;;;;;;;;;;;;;;18.24;91.44;94856.41;5156768;27;1211;-55
2023/08/28 02:41:18;;;;;;;;;;;;;;;18.19;92.49;94855.41;5156908;27;1039;-55
2023/08/28 02:43:44;;;;;;;;;;;;;;;18.14;92.51;94851.47;5156811;27;949;-55
2023/08/28 02:46:10;;;;;;;;;;;;;;;18.08;93.12;94854.19;5156827;27;1990;-55
2023/08/28 02:48:36;;;;;;;;;;;;;;;17.93;93.73;94849.06;5156574;27;1561;-55
2023/08/28 02:51:02;;;;;;;;;;;;;;;17.85;94.01;94843.88;5156465;27;1024;-56
2023/08/28 02:53:28;;;;;;;;;;;;;;;17.64;94.28;94843.13;5154523;27;2233;-56
2023/08/28 02:56:23;;;;;;;;;;;;;;;17.50;96.11;94845.00;5135282;27;2836;-56
2023/08/28 02:58:49;;;;;;;;;;;;;;;17.43;95.36;94846.06;5135956;27;995;-55
2023/08/28 03:01:15;;;;;;;;;;;;;;;17.44;95.60;94847.72;5135551;27;957;-56
2023/08/28 03:03:41;;;;;;;;;;;;;;;17.59;95.38;94855.59;5135491;27;968;-55
2023/08/28 03:06:07;;;;;;;;;;;;;;;17.61;94.93;94851.63;5135218;27;1989;-56
2023/08/28 03:08:33;;;;;;;;;;;;;;;17.76;93.89;94856.78;5135587;27;1035;-56
2023/08/28 03:10:59;;;;;;;;;;;;;;;17.79;93.75;94848.25;5135533;27;1013;-55
2023/08/28 03:13:25;;;;;;;;;;;;;;;17.65;94.37;94855.56;5135361;27;974;-56
2023/08/28 03:15:51;;;;;;;;;;;;;;;17.66;94.59;94851.84;5135607;27;968;-56
2023/08/28 03:18:18;;;;;;;;;;;;;;;17.62;95.08;94855.16;5135425;27;1003;-55
2023/08/28 03:20:44;;;;;;;;;;;;;;;17.46;95.04;94854.59;5135102;27;1301;-56
2023/08/28 03:23:10;;;;;;;;;;;;;;;17.40;95.25;94862.72;5135157;27;897;-55
2023/08/28 03:25:36;;;;;;;;;;;;;;;17.48;94.53;94857.91;5135377;27;1909;-56
2023/08/28 03:28:06;;;;;;;;;;;;;;;17.53;94.01;94851.88;5135197;27;1046;-55
2023/08/28 03:30:33;;;;;;;;;;;;;;;17.50;94.43;94860.41;5134510;27;977;-54
2023/08/28 03:32:59;;;;;;;;;;;;;;;17.33;94.14;94849.19;5135289;27;1136;-55
2023/08/28 03:35:25;;;;;;;;;;;;;;;17.27;94.80;94850.88;5135087;27;971;-55
2023/08/28 03:37:51;;;;;;;;;;;;;;;17.30;95.15;94842.34;5135133;27;1273;-55
2023/08/28 03:40:17;;;;;;;;;;;;;;;17.45;94.52;94849.38;5135102;27;1044;-55
2023/08/28 03:42:43;;;;;;;;;;;;;;;17.47;94.41;94848.16;5135151;27;1036;-55
2023/08/28 03:45:09;;;;;;;;;;;;;;;17.41;94.80;94848.16;5134763;27;1905;-55
2023/08/28 03:47:35;;;;;;;;;;;;;;;17.40;95.28;94844.63;5134996;27;1245;-55
2023/08/28 03:50:01;;;;;;;;;;;;;;;17.28;95.13;94840.88;5134757;27;1106;-55
2023/08/28 03:52:27;;;;;;;;;;;;;;;17.15;95.36;94828.25;5134862;27;1076;-55
2023/08/28 03:54:53;;;;;;;;;;;;;;;17.18;95.69;94838.63;5134770;27;962;-54
2023/08/28 03:57:20;;;;;;;;;;;;;;;17.21;95.88;94835.50;5134667;27;1044;-55
2023/08/28 03:59:46;;;;;;;;;;;;;;;17.32;95.10;94834.00;5134916;27;1040;-55
2023/08/28 04:02:12;;;;;;;;;;;;;;;17.32;95.71;94834.00;5134430;27;1074;-55
2023/08/28 04:04:39;;;;;;;;;;;;;;;17.32;95.85;94847.53;5133215;27;1926;-56
2023/08/28 04:07:05;;;;;;;;;;;;;;;17.35;95.20;94849.81;5113932;28;1098;-55
2023/08/28 04:09:31;;;;;;;;;;;;;;;17.35;95.16;94855.22;5113989;28;1021;-55
2023/08/28 04:11:57;;;;;;;;;;;;;;;17.23;95.09;94855.03;5114133;28;974;-55
2023/08/28 04:14:23;;;;;;;;;;;;;;;17.12;96.17;94847.56;5114091;28;1078;-55
2023/08/28 04:16:53;;;;;;;;;;;;;;;17.22;96.81;94850.66;5113811;28;1060;-55
2023/08/28 04:19:19;;;;;;;;;;;;;;;17.36;95.79;94844.22;5114108;28;965;-55
2023/08/28 04:21:45;;;;;;;;;;;;;;;17.44;96.00;94843.16;5102443;28;1184;-55
2023/08/28 04:24:11;;;;;;;;;;;;;;;17.63;94.88;94857.66;5093512;28;1909;-55
2023/08/28 04:26:37;;;;;;;;;;;;;;;17.62;95.05;94850.56;5093714;28;1048;-56
2023/08/28 04:29:03;;;;;;;;;;;;;;;17.66;95.05;94846.44;5093647;28;1048;-56
2023/08/28 04:31:29;;;;;;;;;;;;;;;17.80;94.96;94858.03;5093182;28;1036;-55
2023/08/28 04:33:55;;;;;;;;;;;;;;;17.94;94.24;94858.84;5075431;28;1040;-55
2023/08/28 04:36:21;;;;;;;;;;;;;;;17.91;93.11;94868.22;5093469;28;1052;-53
2023/08/28 04:38:47;;;;;;;;;;;;;;;18.75;88.33;94870.09;5093562;28;1060;-54
2023/08/28 04:41:12;;;;;;;;;;;;;;;19.69;83.45;94871.81;5093930;28;1048;-54
2023/08/28 04:43:38;;;;;;;;;;;;;;;20.26;80.47;94879.75;5097387;28;1032;-54
2023/08/28 04:46:04;;;;;;;;;;;;;;;20.37;80.96;94880.84;5097174;28;1938;-55
2023/08/28 04:48:30;;;;;;;;;;;;;;;20.35;80.98;94884.84;5097061;28;1099;-54
2023/08/28 04:50:56;;;;;;;;;;;;;;;20.32;81.57;94877.16;5097452;28;961;-55
2023/08/28 04:53:22;;;;;;;;;;;;;;;20.29;81.78;94875.72;5097346;28;1070;-54
2023/08/28 04:55:48;;;;;;;;;;;;;;;20.10;82.07;94877.63;5097251;28;1319;-55
2023/08/28 04:58:14;;;;;;;;;;;;;;;20.30;81.69;94871.97;5097245;28;1052;-55
2023/08/28 05:00:40;;;;;;;;;;;;;;;20.17;81.63;94866.72;5096978;28;1060;-55
2023/08/28 05:03:06;;;;;;;;;;;;;;;20.25;80.37;94871.81;5097162;28;1022;-55
2023/08/28 05:05:32;;;;;;;;;;;;;;;20.23;83.69;94882.09;5105431;28;1917;-55
2023/08/28 05:07:59;;;;;;;;;;;;;;;20.16;83.65;94873.19;5117366;28;1033;-55
2023/08/28 05:10:24;;;;;;;;;;;;;;;20.10;85.55;94877.63;5117256;28;965;-55
2023/08/28 05:12:50;;;;;;;;;;;;;;;20.12;85.90;94878.22;5117384;28;1019;-55
2023/08/28 05:15:16;;;;;;;;;;;;;;;20.08;84.45;94880.56;5116960;28;1044;-55
2023/08/28 05:17:42;;;;;;;;;;;;;;;20.09;82.37;94876.00;5117025;28;974;-55
2023/08/28 05:20:09;;;;;;;;;;;;;;;20.13;82.24;94879.91;5116947;28;1104;-55
2023/08/28 05:22:35;;;;;;;;;;;;;;;20.36;83.65;94870.22;5135455;27;1196;-55
2023/08/28 05:25:01;;;;;;;;;;;;;;;20.61;83.29;94881.00;5137641;27;1913;-55
2023/08/28 05:27:26;;;;;;;;;;;;;;;20.84;81.60;94874.81;5137461;27;1567;-55
2023/08/28 05:29:53;;;;;;;;;;;;;;;20.87;82.01;94871.63;5137435;27;1103;-55
2023/08/28 05:32:19;;;;;;;;;;;;;;;20.84;81.78;94870.19;5137237;27;1075;-55
2023/08/28 05:34:44;;;;;;;;;;;;;;;21.03;78.87;94873.66;5137320;27;1110;-54
2023/08/28 05:37:10;;;;;;;;;;;;;;;21.23;78.08;94864.38;5137478;27;1028;-55
2023/08/28 05:39:36;;;;;;;;;;;;;;;21.40;77.85;94870.78;5137552;27;1028;-54
2023/08/28 05:42:02;;;;;;;;;;;;;;;21.40;75.34;94872.66;5137179;27;1016;-55
2023/08/28 05:44:28;;;;;;;;;;;;;;;21.48;79.56;94863.38;5136969;27;1913;-55
2023/08/28 05:46:55;;;;;;;;;;;;;;;21.41;77.18;94866.97;5137099;27;1016;-55
2023/08/28 05:49:21;;;;;;;;;;;;;;;21.46;76.11;94863.59;5136944;27;1106;-55
2023/08/28 05:51:47;;;;;;;;;;;;;;;21.66;78.15;94860.50;5137289;27;970;-55
2023/08/28 05:54:13;;;;;;;;;;;;;;;21.98;75.72;94869.09;5136591;27;978;-55
2023/08/28 05:56:39;;;;;;;;;;;;;;;22.15;74.78;94863.75;5137043;27;995;-54
2023/08/28 05:59:05;;;;;;;;;;;;;;;22.37;75.00;94868.59;5136883;27;1008;-55
2023/08/28 06:01:31;;;;;;;;;;;;;;;22.65;74.22;94859.59;5136998;27;1187;-55
2023/08/28 06:03:57;;;;;;;;;;;;;;;22.65;74.33;94870.50;5118533;27;1016;-55
2023/08/28 06:06:23;;;;;;;;;;;;;;;22.59;73.83;94866.00;5120353;27;1933;-55
2023/08/28 06:08:49;;;;;;;;;;;;;;;22.55;74.82;94864.84;5116262;28;1076;-55
2023/08/28 06:11:15;;;;;;;;;;;;;;;22.66;73.20;94866.69;5123821;27;2654;-55
2023/08/28 06:13:41;;;;;;;;;;;;;;;22.77;73.87;94865.81;5136571;27;1044;-55
2023/08/28 06:16:07;;;;;;;;;;;;;;;23.02;73.54;94858.34;5136524;27;1105;-55
2023/08/28 06:18:33;;;;;;;;;;;;;;;23.01;71.91;94865.69;5136613;27;973;-55
2023/08/28 06:20:59;;;;;;;;;;;;;;;22.98;72.65;94866.19;5131831;27;1177;-54
2023/08/28 06:23:25;;;;;;;;;;;;;;;23.14;73.87;94873.56;5116013;28;1083;-54
2023/08/28 06:25:51;;;;;;;;;;;;;;;23.36;71.59;94876.41;5115903;28;1909;-55
2023/08/28 06:28:17;;;;;;;;;;;;;;;23.61;70.04;94879.78;5115882;28;1048;-55
2023/08/28 06:30:43;;;;;;;;;;;;;;;23.62;70.38;94874.09;5115577;28;1557;-54
2023/08/28 06:33:09;;;;;;;;;;;;;;;23.76;71.81;94875.38;5115595;28;1040;-55
2023/08/28 06:35:35;;;;;;;;;;;;;;;23.94;69.66;94879.78;5115568;28;1024;-55
2023/08/28 06:38:01;;;;;;;;;;;;;;;23.77;70.39;94873.47;5115742;28;1056;-55
2023/08/28 06:40:27;;;;;;;;;;;;;;;23.93;70.75;94875.38;5115508;28;941;-55
2023/08/28 06:42:53;;;;;;;;;;;;;;;24.15;68.91;94869.97;5115710;28;999;-54
2023/08/28 06:45:18;;;;;;;;;;;;;;;24.33;69.54;94874.28;5115180;28;1930;-55
2023/08/28 06:47:44;;;;;;;;;;;;;;;24.38;68.38;94872.69;5115363;28;1024;-55
2023/08/28 06:50:10;;;;;;;;;;;;;;;24.42;67.66;94876.56;5115499;28;1048;-55
2023/08/28 06:52:36;;;;;;;;;;;;;;;24.62;66.02;94881.47;5097015;28;2299;-56
2023/08/28 06:55:03;;;;;;;;;;;;;;;24.77;65.41;94873.44;5115471;28;922;-55
2023/08/28 06:57:28;;;;;;;;;;;;;;;24.81;69.52;94873.75;5115047;28;1020;-56
2023/08/28 06:59:54;;;;;;;;;;;;;;;24.92;68.39;94870.84;5115335;28;974;-56
2023/08/28 07:02:20;;;;;;;;;;;;;;;25.08;64.96;94873.75;5114928;28;1052;-56
2023/08/28 07:04:46;;;;;;;;;;;;;;;25.39;63.68;94872.16;5114292;28;1985;-57
2023/08/28 07:07:15;;;;;;;;;;;;;;;25.55;64.91;94877.75;5135285;27;1044;-56
2023/08/28 07:09:41;;;;;;;;;;;;;;;25.43;66.17;94865.06;5135774;27;1003;-56
2023/08/28 07:12:07;;;;;;;;;;;;;;;25.51;65.61;94867.31;5135505;27;1045;-55
2023/08/28 07:14:32;;;;;;;;;;;;;;;25.64;63.73;94865.22;5135263;27;1036;-56
2023/08/28 07:16:59;;;;;;;;;;;;;;;25.78;63.47;94860.13;5135670;27;1124;-53
2023/08/28 07:19:25;;;;;;;;;;;;;;;25.76;61.83;94860.38;5135484;27;1011;-55
2023/08/28 07:21:51;;;;;;;;;;;;;;;25.94;63.01;94864.63;5134997;27;1129;-55
2023/08/28 07:24:17;;;;;;;;;;;;;;;26.10;61.58;94862.81;5130451;27;2538;-55
2023/08/28 07:26:43;;;;;;;;;;;;;;;26.30;61.08;94868.38;5114523;28;1087;-56
2023/08/28 07:29:09;;;;;;;;;;;;;;;26.55;60.99;94871.50;5114493;28;948;-55
2023/08/28 07:31:35;;;;;;;;;;;;;;;26.83;58.72;94873.00;5114736;28;1191;-55
2023/08/28 07:34:03;;;;;;;;;;;;;;;26.78;58.27;94870.25;5114576;28;989;-55
2023/08/28 07:36:29;;;;;;;;;;;;;;;26.84;57.99;94864.53;5114283;28;1048;-55
2023/08/28 07:38:55;;;;;;;;;;;;;;;26.98;59.17;94866.75;5114610;28;999;-58
2023/08/28 07:41:21;;;;;;;;;;;;;;;27.03;54.36;94867.56;5114315;28;1000;-58
2023/08/28 07:43:47;;;;;;;;;;;;;;;27.26;59.19;94865.41;5114282;28;1095;-58
2023/08/28 07:46:13;;;;;;;;;;;;;;;27.49;54.82;94864.06;5114041;28;1988;-55
2023/08/28 07:48:40;;;;;;;;;;;;;;;27.58;53.72;94861.59;5114222;28;1039;-55
2023/08/28 07:51:06;;;;;;;;;;;;;;;27.74;55.29;94855.00;5114347;28;963;-55
2023/08/28 07:53:32;;;;;;;;;;;;;;;27.87;56.22;94853.59;5096339;28;957;-55
2023/08/28 07:56:00;;;;;;;;;;;;;;;28.01;54.55;94848.38;5114112;28;1039;-55
2023/08/28 07:58:26;;;;;;;;;;;;;;;28.21;54.56;94861.22;5113957;28;969;-55
2023/08/28 08:00:53;;;;;;;;;;;;;;;28.18;53.19;94856.31;5114274;28;965;-55
2023/08/28 08:03:19;;;;;;;;;;;;;;;28.18;54.42;94848.88;5095810;28;966;-55
2023/08/28 08:05:45;;;;;;;;;;;;;;;28.17;56.75;94850.00;5112820;28;1996;-55
2023/08/28 08:08:11;;;;;;;;;;;;;;;28.21;54.61;94844.72;5112487;28;1119;-56
2023/08/28 08:10:37;;;;;;;;;;;;;;;28.18;53.46;94843.38;5113800;28;1012;-55
2023/08/28 08:13:04;;;;;;;;;;;;;;;28.24;54.05;94833.19;5131404;27;2543;-56
2023/08/28 08:15:31;;;;;;;;;;;;;;;28.47;53.55;94837.22;5154944;27;1051;-55
2023/08/28 08:17:57;;;;;;;;;;;;;;;28.53;53.02;94844.41;5155039;27;1057;-56
2023/08/28 08:20:23;;;;;;;;;;;;;;;28.62;52.34;94842.69;5155200;27;972;-55
2023/08/28 08:22:49;;;;;;;;;;;;;;;28.77;53.39;94839.03;5134278;27;1180;-55
2023/08/28 08:25:15;;;;;;;;;;;;;;;28.89;52.29;94841.44;5134306;28;1909;-55
2023/08/28 08:27:44;;;;;;;;;;;;;;;28.83;51.75;94834.31;5134127;28;995;-56
2023/08/28 08:30:13;;;;;;;;;;;;;;;28.85;51.56;94831.28;5134367;28;1019;-56
2023/08/28 08:32:39;;;;;;;;;;;;;;;29.12;50.93;94836.34;5134325;28;973;-55
2023/08/28 08:35:05;;;;;;;;;;;;;;;29.29;49.70;94836.81;5134104;28;1036;-55
2023/08/28 08:37:32;;;;;;;;;;;;;;;29.44;50.95;94818.50;5132681;27;2490;-55
2023/08/28 08:39:58;;;;;;;;;;;;;;;29.25;50.34;94819.22;5134121;28;1056;-55
2023/08/28 08:42:24;;;;;;;;;;;;;;;29.41;48.81;94822.69;5133892;28;952;-55
2023/08/28 08:44:50;;;;;;;;;;;;;;;29.69;49.49;94810.03;5134018;28;1913;-55
2023/08/28 08:47:17;;;;;;;;;;;;;;;29.76;49.48;94801.44;5134203;28;976;-55
2023/08/28 08:49:46;;;;;;;;;;;;;;;29.68;48.67;94807.56;5133294;27;2580;-55
2023/08/28 08:52:12;;;;;;;;;;;;;;;29.64;49.49;94803.75;5119199;27;2485;-55
2023/08/28 08:54:42;;;;;;;;;;;;;;;29.69;49.40;94806.44;5134036;28;1002;-56
2023/08/28 08:57:10;;;;;;;;;;;;;;;29.61;51.28;94796.88;5133832;28;1886;-56
2023/08/28 08:59:36;;;;;;;;;;;;;;;29.81;49.98;94786.81;5133874;28;1055;-55
2023/08/28 09:02:02;;;;;;;;;;;;;;;29.86;51.25;94783.97;5134021;28;1044;-56
2023/08/28 09:04:30;;;;;;;;;;;;;;;30.03;49.71;94789.88;5134041;28;1910;-56
2023/08/28 09:06:58;;;;;;;;;;;;;;;30.16;49.81;94783.66;5115279;28;1219;-56
2023/08/28 09:09:24;;;;;;;;;;;;;;;30.12;49.28;94766.03;5113247;28;1035;-56
2023/08/28 09:11:50;;;;;;;;;;;;;;;30.21;50.15;94768.16;5113449;28;1020;-56
2023/08/28 09:14:16;;;;;;;;;;;;;;;30.01;49.59;94763.72;5113415;28;1208;-55
2023/08/28 09:16:42;;;;;;;;;;;;;;;30.11;48.46;94760.84;5113403;28;1044;-56
2023/08/28 09:19:08;;;;;;;;;;;;;;;30.21;50.02;94754.38;5113158;28;1262;-55
2023/08/28 09:21:35;;;;;;;;;;;;;;;30.38;49.88;94757.50;5113596;28;1161;-55
2023/08/28 09:24:01;;;;;;;;;;;;;;;30.48;50.84;94751.84;5113484;28;965;-55
2023/08/28 09:26:27;;;;;;;;;;;;;;;30.67;47.64;94748.28;5113169;28;1906;-55
2023/08/28 09:29:00;;;;;;;;;;;;;;;30.64;48.62;94748.84;5114765;28;1029;-55
2023/08/28 09:31:32;;;;;;;;;;;;;;;30.54;47.37;94745.16;5116778;28;1029;-55
2023/08/28 09:33:59;;;;;;;;;;;;;;;30.72;49.34;94739.94;5116801;28;1029;-55
2023/08/28 09:36:25;;;;;;;;;;;;;;;30.83;47.12;94740.56;5116617;28;1020;-55
2023/08/28 09:38:51;;;;;;;;;;;;;;;30.87;47.79;94734.16;5098339;28;1087;-55
2023/08/28 09:41:17;;;;;;;;;;;;;;;30.94;47.43;94729.13;5116707;28;1041;-55
2023/08/28 09:43:43;;;;;;;;;;;;;;;31.01;49.07;94720.44;5116503;28;1067;-56
2023/08/28 09:46:09;;;;;;;;;;;;;;;31.12;48.22;94721.13;5116631;28;1909;-55
2023/08/28 09:48:35;;;;;;;;;;;;;;;31.16;48.04;94711.09;5116702;28;1000;-55
2023/08/28 09:51:06;;;;;;;;;;;;;;;31.17;47.07;94717.44;5116398;28;1063;-55
2023/08/28 09:53:33;;;;;;;;;;;;;;;31.19;47.35;94716.03;5116144;28;1094;-55
2023/08/28 09:55:59;;;;;;;;;;;;;;;31.24;45.35;94706.81;5116340;28;1025;-55
2023/08/28 09:58:26;;;;;;;;;;;;;;;31.40;47.31;94691.63;5116389;28;965;-56
2023/08/28 10:00:54;;;;;;;;;;;;;;;31.32;43.58;94700.59;5116575;28;1266;-55
2023/08/28 10:03:21;;;;;;;;;;;;;;;31.46;44.81;94692.34;5116218;28;1031;-56
2023/08/28 10:05:47;;;;;;;;;;;;;;;31.56;46.75;94691.38;5124594;27;1992;-55
2023/08/28 10:08:14;;;;;;;;;;;;;;;31.58;46.03;94689.94;5136524;27;1044;-55
2023/08/28 10:10:42;;;;;;;;;;;;;;;31.48;46.88;94685.44;5136902;27;971;-55
2023/08/28 10:13:13;;;;;;;;;;;;;;;31.62;46.33;94679.09;5136750;27;1045;-55
2023/08/28 10:15:41;;;;;;;;;;;;;;;31.71;47.08;94682.78;5136205;27;2812;-55
2023/08/28 10:18:09;;;;;;;;;;;;;;;31.83;47.20;94673.97;5155960;27;2808;-54
2023/08/28 10:20:36;;;;;;;;;;;;;;;31.74;46.34;94671.13;5155828;27;1168;-55
2023/08/28 10:23:03;;;;;;;;;;;;;;;31.82;46.00;94661.31;5135619;27;2868;-55
2023/08/28 10:25:30;;;;;;;;;;;;;;;31.86;44.51;94657.59;5136410;27;1913;-55
2023/08/28 10:27:58;;;;;;;;;;;;;;;31.84;45.07;94664.56;5136391;27;966;-55
2023/08/28 10:30:26;;;;;;;;;;;;;;;31.93;45.55;94654.44;5136254;27;1252;-55
2023/08/28 10:32:54;;;;;;;;;;;;;;;31.91;44.07;94662.22;5136173;27;1020;-55
2023/08/28 10:35:21;;;;;;;;;;;;;;;32.00;44.36;94657.59;5136268;27;1048;-55
2023/08/28 10:37:47;;;;;;;;;;;;;;;32.06;45.55;94642.56;5136307;27;973;-55
2023/08/28 10:40:14;;;;;;;;;;;;;;;32.04;45.03;94636.53;5135791;27;1114;-55
2023/08/28 10:42:41;;;;;;;;;;;;;;;32.06;45.44;94639.81;5135929;27;1091;-55
2023/08/28 10:45:07;;;;;;;;;;;;;;;32.07;44.19;94635.91;5136082;27;1905;-55
2023/08/28 10:47:33;;;;;;;;;;;;;;;32.16;45.58;94629.66;5135834;27;1040;-55
2023/08/28 10:49:59;;;;;;;;;;;;;;;32.33;45.54;94632.59;5135697;27;1095;-55
2023/08/28 10:52:27;;;;;;;;;;;;;;;32.38;41.34;94634.41;5135631;27;933;-55
2023/08/28 10:54:54;;;;;;;;;;;;;;;32.49;44.52;94622.78;5135999;27;987;-55
2023/08/28 10:57:26;;;;;;;;;;;;;;;32.62;40.16;94634.16;5135574;27;1040;-55
2023/08/28 10:59:52;;;;;;;;;;;;;;;32.59;42.97;94620.94;5135639;27;968;-55
2023/08/28 11:02:19;;;;;;;;;;;;;;;32.63;43.20;94622.78;5117325;27;1590;-54
2023/08/28 11:04:45;;;;;;;;;;;;;;;32.58;41.38;94617.34;5150812;27;2480;-55
2023/08/28 11:07:20;;;;;;;;;;;;;;;32.65;43.49;94614.13;5156215;27;1043;-55
2023/08/28 11:09:46;;;;;;;;;;;;;;;32.55;43.57;94603.28;5156262;27;1055;-55
2023/08/28 11:12:13;;;;;;;;;;;;;;;32.49;43.01;94606.19;5156295;27;1017;-55
2023/08/28 11:14:55;;;;;;;;;;;;;;;32.61;43.65;94597.38;5156057;27;1016;-55
2023/08/28 11:17:22;;;;;;;;;;;;;;;32.69;43.23;94587.50;5155913;27;1036;-55
2023/08/28 11:19:54;;;;;;;;;;;;;;;32.68;41.17;94596.91;5155917;27;1095;-55
2023/08/28 11:22:33;;;;;;;;;;;;;;;32.60;41.25;94586.59;5139254;27;1156;-55
2023/08/28 11:25:00;;;;;;;;;;;;;;;32.64;41.03;94576.53;5133678;27;2619;-55
2023/08/28 11:27:33;;;;;;;;;;;;;;;32.60;40.28;94581.88;5135026;27;967;-54
2023/08/28 11:30:04;;;;;;;;;;;;;;;32.66;39.99;94577.84;5134985;27;1083;-55
2023/08/28 11:32:31;;;;;;;;;;;;;;;32.64;41.11;94571.81;5134880;27;1086;-55
2023/08/28 11:35:00;;;;;;;;;;;;;;;32.64;39.58;94577.34;5135217;27;991;-55
2023/08/28 11:37:30;;;;;;;;;;;;;;;32.75;39.21;94561.31;5134844;27;1032;-55
2023/08/28 11:39:56;;;;;;;;;;;;;;;32.79;39.01;94551.25;5116984;27;961;-56
2023/08/28 11:42:24;;;;;;;;;;;;;;;32.82;37.16;94560.84;5135017;27;980;-56
2023/08/28 11:44:50;;;;;;;;;;;;;;;32.91;38.30;94552.59;5134767;27;1906;-56
2023/08/28 11:47:22;;;;;;;;;;;;;;;32.93;36.49;94558.63;5134702;27;1024;-55
2023/08/28 11:49:48;;;;;;;;;;;;;;;32.96;36.19;94553.28;5116482;27;1008;-56
2023/08/28 11:52:15;;;;;;;;;;;;;;;32.90;36.46;94559.25;5115839;27;1071;-56
2023/08/28 11:54:41;;;;;;;;;;;;;;;32.90;34.91;94562.03;5134961;27;1031;-56
2023/08/28 11:57:08;;;;;;;;;;;;;;;32.84;35.92;94547.50;5134614;27;1048;-56
2023/08/28 11:59:35;;;;;;;;;;;;;;;33.02;34.39;94545.66;5134796;27;1054;-56
2023/08/28 12:02:03;;;;;;;;;;;;;;;33.08;34.61;94547.16;5116254;27;1039;-56
2023/08/28 12:04:36;;;;;;;;;;;;;;;33.00;34.83;94545.16;5134611;27;1905;-57
2023/08/28 12:07:04;;;;;;;;;;;;;;;33.06;35.66;94535.59;5134354;27;1135;-56
2023/08/28 12:09:32;;;;;;;;;;;;;;;33.15;34.08;94530.94;5134323;27;1102;-57
2023/08/28 12:11:59;;;;;;;;;;;;;;;33.24;35.24;94528.22;5134355;27;1039;-56
2023/08/28 12:14:25;;;;;;;;;;;;;;;33.25;35.77;94519.56;5134623;28;968;-56
2023/08/28 12:16:58;;;;;;;;;;;;;;;33.32;35.74;94513.56;5134332;27;1035;-56
2023/08/28 12:19:24;;;;;;;;;;;;;;;33.10;36.20;94510.84;5106818;28;2843;-56
2023/08/28 12:21:50;;;;;;;;;;;;;;;33.00;35.29;94512.75;5105604;28;1237;-56
2023/08/28 12:24:16;;;;;;;;;;;;;;;33.07;36.43;94507.59;5097647;28;2546;-56
2023/08/28 12:26:43;;;;;;;;;;;;;;;33.07;36.21;94504.00;5093470;28;1902;-56
2023/08/28 12:29:09;;;;;;;;;;;;;;;33.11;36.49;94499.47;5093677;28;954;-56
2023/08/28 12:31:36;;;;;;;;;;;;;;;33.13;35.06;94505.50;5094359;28;2553;-56
2023/08/28 12:34:06;;;;;;;;;;;;;;;33.20;34.61;94500.34;5075541;28;1036;-55
2023/08/28 12:36:36;;;;;;;;;;;;;;;33.24;35.99;94506.06;5093095;28;1040;-56
2023/08/28 12:39:03;;;;;;;;;;;;;;;33.17;33.39;94503.72;5093443;28;1492;-55
2023/08/28 12:41:36;;;;;;;;;;;;;;;33.14;36.27;94490.53;5093097;28;1036;-55
2023/08/28 12:44:05;;;;;;;;;;;;;;;33.11;36.26;94484.84;5093198;28;1103;-56
2023/08/28 12:46:31;;;;;;;;;;;;;;;33.05;34.91;94476.63;5092996;28;1913;-56
2023/08/28 12:48:58;;;;;;;;;;;;;;;33.01;34.05;94481.19;5093458;28;945;-57
2023/08/28 12:51:24;;;;;;;;;;;;;;;32.95;34.70;94478.84;5093012;28;1107;-56
2023/08/28 12:53:50;;;;;;;;;;;;;;;32.99;35.19;94471.53;5101920;28;2687;-55
2023/08/28 12:56:16;;;;;;;;;;;;;;;33.07;35.68;94474.34;5113527;28;961;-56
2023/08/28 12:58:43;;;;;;;;;;;;;;;33.04;35.27;94471.41;5113699;28;1068;-57